sensor_id;sensor_type;location;lat;lon;timestamp;pressure;altitude;pressure_sealevel;temperature
75428;BMP280;64008;55.612;37.698;2023-05-20T00:00:50;100654.25;;;22.34
75428;BMP280;64008;55.612;37.698;2023-05-20T00:03:16;100642.72;;;22.28
75428;BMP280;64008;55.612;37.698;2023-05-20T00:05:41;100651.22;;;22.17
75428;BMP280;64008;55.612;37.698;2023-05-20T00:08:07;100640.66;;;22.20
75428;BMP280;64008;55.612;37.698;2023-05-20T00:10:34;100657.63;;;22.21
75428;BMP280;64008;55.612;37.698;2023-05-20T00:13:00;100655.13;;;22.29
75428;BMP280;64008;55.612;37.698;2023-05-20T00:15:25;100651.88;;;22.27
75428;BMP280;64008;55.612;37.698;2023-05-20T00:17:51;100640.44;;;22.41
75428;BMP280;64008;55.612;37.698;2023-05-20T00:20:16;100657.44;;;22.36
75428;BMP280;64008;55.612;37.698;2023-05-20T00:22:42;100644.63;;;22.28
75428;BMP280;64008;55.612;37.698;2023-05-20T00:25:07;100639.88;;;22.20
75428;BMP280;64008;55.612;37.698;2023-05-20T00:27:33;100655.75;;;22.21
75428;BMP280;64008;55.612;37.698;2023-05-20T00:29:59;100661.75;;;22.13
75428;BMP280;64008;55.612;37.698;2023-05-20T00:32:24;100651.03;;;22.08
75428;BMP280;64008;55.612;37.698;2023-05-20T00:34:57;100647.69;;;22.16
75428;BMP280;64008;55.612;37.698;2023-05-20T00:37:24;100657.44;;;22.12
75428;BMP280;64008;55.612;37.698;2023-05-20T00:39:49;100641.88;;;22.09
75428;BMP280;64008;55.612;37.698;2023-05-20T00:42:22;100657.22;;;22.09
75428;BMP280;64008;55.612;37.698;2023-05-20T00:44:48;100656.13;;;22.10
75428;BMP280;64008;55.612;37.698;2023-05-20T00:47:15;100668.38;;;21.97
75428;BMP280;64008;55.612;37.698;2023-05-20T00:49:43;100661.06;;;22.02
75428;BMP280;64008;55.612;37.698;2023-05-20T00:52:08;100662.97;;;22.02
75428;BMP280;64008;55.612;37.698;2023-05-20T00:54:34;100672.63;;;22.03
75428;BMP280;64008;55.612;37.698;2023-05-20T00:57:01;100657.25;;;22.03
75428;BMP280;64008;55.612;37.698;2023-05-20T00:59:27;100661.00;;;22.07
75428;BMP280;64008;55.612;37.698;2023-05-20T01:01:53;100661.06;;;22.02
75428;BMP280;64008;55.612;37.698;2023-05-20T01:04:19;100657.59;;;21.97
75428;BMP280;64008;55.612;37.698;2023-05-20T01:06:45;100656.31;;;21.94
75428;BMP280;64008;55.612;37.698;2023-05-20T01:09:11;100667.13;;;21.89
75428;BMP280;64008;55.612;37.698;2023-05-20T01:11:43;100659.84;;;21.90
75428;BMP280;64008;55.612;37.698;2023-05-20T01:14:11;100661.38;;;21.96
75428;BMP280;64008;55.612;37.698;2023-05-20T01:16:38;100653.63;;;21.94
75428;BMP280;64008;55.612;37.698;2023-05-20T01:19:07;100659.31;;;21.88
75428;BMP280;64008;55.612;37.698;2023-05-20T01:21:39;100660.13;;;21.88
75428;BMP280;64008;55.612;37.698;2023-05-20T01:24:05;100641.81;;;21.90
75428;BMP280;64008;55.612;37.698;2023-05-20T01:26:31;100655.31;;;21.85
75428;BMP280;64008;55.612;37.698;2023-05-20T01:28:57;100649.94;;;21.85
75428;BMP280;64008;55.612;37.698;2023-05-20T01:31:31;100653.69;;;21.84
75428;BMP280;64008;55.612;37.698;2023-05-20T01:33:58;100652.00;;;21.93
75428;BMP280;64008;55.612;37.698;2023-05-20T01:36:24;100657.66;;;21.92
75428;BMP280;64008;55.612;37.698;2023-05-20T01:38:52;100659.91;;;21.84
75428;BMP280;64008;55.612;37.698;2023-05-20T01:41:19;100647.28;;;21.80
75428;BMP280;64008;55.612;37.698;2023-05-20T01:43:46;100657.81;;;21.76
75428;BMP280;64008;55.612;37.698;2023-05-20T01:46:11;100665.03;;;21.81
75428;BMP280;64008;55.612;37.698;2023-05-20T01:48:37;100663.72;;;21.78
75428;BMP280;64008;55.612;37.698;2023-05-20T01:51:02;100660.72;;;21.80
75428;BMP280;64008;55.612;37.698;2023-05-20T01:53:28;100671.00;;;21.78
75428;BMP280;64008;55.612;37.698;2023-05-20T01:55:54;100674.53;;;21.73
75428;BMP280;64008;55.612;37.698;2023-05-20T01:58:19;100669.16;;;21.73
75428;BMP280;64008;55.612;37.698;2023-05-20T02:00:45;100664.34;;;21.70
75428;BMP280;64008;55.612;37.698;2023-05-20T02:03:10;100666.50;;;21.63
75428;BMP280;64008;55.612;37.698;2023-05-20T02:05:36;100659.56;;;21.62
75428;BMP280;64008;55.612;37.698;2023-05-20T02:08:01;100667.34;;;21.63
75428;BMP280;64008;55.612;37.698;2023-05-20T02:10:27;100664.88;;;21.67
75428;BMP280;64008;55.612;37.698;2023-05-20T02:12:52;100659.00;;;21.65
75428;BMP280;64008;55.612;37.698;2023-05-20T02:15:18;100662.72;;;21.69
75428;BMP280;64008;55.612;37.698;2023-05-20T02:17:43;100668.13;;;21.64
75428;BMP280;64008;55.612;37.698;2023-05-20T02:20:09;100660.03;;;21.69
75428;BMP280;64008;55.612;37.698;2023-05-20T02:22:35;100647.59;;;21.78
75428;BMP280;64008;55.612;37.698;2023-05-20T02:25:01;100645.63;;;21.84
75428;BMP280;64008;55.612;37.698;2023-05-20T02:27:27;100652.75;;;21.70
75428;BMP280;64008;55.612;37.698;2023-05-20T02:29:53;100660.06;;;21.64
75428;BMP280;64008;55.612;37.698;2023-05-20T02:32:18;100648.25;;;21.60
75428;BMP280;64008;55.612;37.698;2023-05-20T02:34:44;100653.41;;;21.56
75428;BMP280;64008;55.612;37.698;2023-05-20T02:37:10;100657.16;;;21.60
75428;BMP280;64008;55.612;37.698;2023-05-20T02:39:35;100659.31;;;21.58
75428;BMP280;64008;55.612;37.698;2023-05-20T02:42:01;100661.97;;;21.63
75428;BMP280;64008;55.612;37.698;2023-05-20T02:44:26;100666.50;;;21.63
75428;BMP280;64008;55.612;37.698;2023-05-20T02:46:52;100660.28;;;21.68
75428;BMP280;64008;55.612;37.698;2023-05-20T02:49:17;100655.53;;;21.59
75428;BMP280;64008;55.612;37.698;2023-05-20T02:51:43;100653.19;;;21.53
75428;BMP280;64008;55.612;37.698;2023-05-20T02:54:08;100656.91;;;21.57
75428;BMP280;64008;55.612;37.698;2023-05-20T02:56:34;100670.38;;;21.52
75428;BMP280;64008;55.612;37.698;2023-05-20T02:59:00;100664.41;;;21.60
75428;BMP280;64008;55.612;37.698;2023-05-20T03:01:25;100665.47;;;21.59
75428;BMP280;64008;55.612;37.698;2023-05-20T03:03:51;100663.81;;;21.68
75428;BMP280;64008;55.612;37.698;2023-05-20T03:06:16;100673.03;;;21.62
75428;BMP280;64008;55.612;37.698;2023-05-20T03:08:42;100662.50;;;21.66
75428;BMP280;64008;55.612;37.698;2023-05-20T03:11:07;100657.16;;;21.60
75428;BMP280;64008;55.612;37.698;2023-05-20T03:13:33;100665.78;;;21.57
75428;BMP280;64008;55.612;37.698;2023-05-20T03:15:59;100662.75;;;21.64
75428;BMP280;64008;55.612;37.698;2023-05-20T03:18:25;100666.59;;;21.58
75428;BMP280;64008;55.612;37.698;2023-05-20T03:20:51;100672.75;;;21.58
75428;BMP280;64008;55.612;37.698;2023-05-20T03:23:16;100673.31;;;21.55
75428;BMP280;64008;55.612;37.698;2023-05-20T03:25:42;100660.41;;;21.57
75428;BMP280;64008;55.612;37.698;2023-05-20T03:28:07;100676.22;;;21.64
75428;BMP280;64008;55.612;37.698;2023-05-20T03:30:33;100671.63;;;21.65
75428;BMP280;64008;55.612;37.698;2023-05-20T03:32:58;100671.34;;;21.66
75428;BMP280;64008;55.612;37.698;2023-05-20T03:35:25;100664.16;;;21.56
75428;BMP280;64008;55.612;37.698;2023-05-20T03:37:51;100663.38;;;21.56
75428;BMP280;64008;55.612;37.698;2023-05-20T03:40:17;100665.28;;;21.50
75428;BMP280;64008;55.612;37.698;2023-05-20T03:42:43;100665.56;;;21.54
75428;BMP280;64008;55.612;37.698;2023-05-20T03:45:08;100661.97;;;21.63
75428;BMP280;64008;55.612;37.698;2023-05-20T03:47:34;100663.06;;;21.62
75428;BMP280;64008;55.612;37.698;2023-05-20T03:49:59;100671.16;;;21.57
75428;BMP280;64008;55.612;37.698;2023-05-20T03:52:25;100663.91;;;21.58
75428;BMP280;64008;55.612;37.698;2023-05-20T03:54:51;100665.75;;;21.62
75428;BMP280;64008;55.612;37.698;2023-05-20T03:57:17;100661.75;;;21.55
75428;BMP280;64008;55.612;37.698;2023-05-20T03:59:44;100675.41;;;21.63
75428;BMP280;64008;55.612;37.698;2023-05-20T04:02:09;100657.41;;;21.59
75428;BMP280;64008;55.612;37.698;2023-05-20T04:04:35;100666.09;;;21.51
75428;BMP280;64008;55.612;37.698;2023-05-20T04:07:00;100659.06;;;21.55
75428;BMP280;64008;55.612;37.698;2023-05-20T04:09:27;100654.81;;;21.54
75428;BMP280;64008;55.612;37.698;2023-05-20T04:11:52;100670.38;;;21.57
75428;BMP280;64008;55.612;37.698;2023-05-20T04:14:18;100662.53;;;21.60
75428;BMP280;64008;55.612;37.698;2023-05-20T04:16:44;100666.00;;;21.61
75428;BMP280;64008;55.612;37.698;2023-05-20T04:19:10;100666.06;;;21.56
75428;BMP280;64008;55.612;37.698;2023-05-20T04:21:36;100678.31;;;21.67
75428;BMP280;64008;55.612;37.698;2023-05-20T04:24:02;100673.13;;;21.76
75428;BMP280;64008;55.612;37.698;2023-05-20T04:26:28;100671.50;;;21.80
75428;BMP280;64008;55.612;37.698;2023-05-20T04:28:54;100661.06;;;21.73
75428;BMP280;64008;55.612;37.698;2023-05-20T04:31:23;100659.41;;;21.77
75428;BMP280;64008;55.612;37.698;2023-05-20T04:33:54;100663.50;;;21.70
75428;BMP280;64008;55.612;37.698;2023-05-20T04:36:19;100672.09;;;21.72
75428;BMP280;64008;55.612;37.698;2023-05-20T04:38:46;100657.38;;;21.64
75428;BMP280;64008;55.612;37.698;2023-05-20T04:41:12;100665.19;;;21.66
75428;BMP280;64008;55.612;37.698;2023-05-20T04:43:40;100663.78;;;21.73
75428;BMP280;64008;55.612;37.698;2023-05-20T04:46:05;100668.94;;;21.94
75428;BMP280;64008;55.612;37.698;2023-05-20T04:48:31;100666.44;;;22.02
75428;BMP280;64008;55.612;37.698;2023-05-20T04:50:57;100668.53;;;22.11
75428;BMP280;64008;55.612;37.698;2023-05-20T04:53:23;100654.72;;;22.17
75428;BMP280;64008;55.612;37.698;2023-05-20T04:55:48;100660.88;;;22.18
75428;BMP280;64008;55.612;37.698;2023-05-20T04:58:18;100663.06;;;22.16
75428;BMP280;64008;55.612;37.698;2023-05-20T05:00:44;100665.47;;;22.17
75428;BMP280;64008;55.612;37.698;2023-05-20T05:03:10;100665.94;;;22.24
75428;BMP280;64008;55.612;37.698;2023-05-20T05:05:39;100661.16;;;22.40
75428;BMP280;64008;55.612;37.698;2023-05-20T05:08:05;100657.81;;;22.29
75428;BMP280;64008;55.612;37.698;2023-05-20T05:10:31;100663.69;;;22.32
75428;BMP280;64008;55.612;37.698;2023-05-20T05:12:57;100661.00;;;22.32
75428;BMP280;64008;55.612;37.698;2023-05-20T05:15:23;100658.09;;;22.28
75428;BMP280;64008;55.612;37.698;2023-05-20T05:17:49;100653.72;;;22.32
75428;BMP280;64008;55.612;37.698;2023-05-20T05:20:15;100648.88;;;22.34
75428;BMP280;64008;55.612;37.698;2023-05-20T05:22:41;100649.19;;;22.27
75428;BMP280;64008;55.612;37.698;2023-05-20T05:25:07;100645.25;;;22.20
75428;BMP280;64008;55.612;37.698;2023-05-20T05:27:33;100641.75;;;22.19
75428;BMP280;64008;55.612;37.698;2023-05-20T05:30:03;100650.00;;;22.28
75428;BMP280;64008;55.612;37.698;2023-05-20T05:32:28;100646.78;;;22.26
75428;BMP280;64008;55.612;37.698;2023-05-20T05:34:54;100651.59;;;22.29
75428;BMP280;64008;55.612;37.698;2023-05-20T05:37:20;100642.25;;;22.26
75428;BMP280;64008;55.612;37.698;2023-05-20T05:39:46;100654.13;;;22.20
75428;BMP280;64008;55.612;37.698;2023-05-20T05:42:11;100650.66;;;22.20
75428;BMP280;64008;55.612;37.698;2023-05-20T05:44:37;100650.84;;;22.23
75428;BMP280;64008;55.612;37.698;2023-05-20T05:47:02;100654.88;;;22.26
75428;BMP280;64008;55.612;37.698;2023-05-20T05:49:28;100656.72;;;22.31
75428;BMP280;64008;55.612;37.698;2023-05-20T05:51:53;100645.81;;;22.41
75428;BMP280;64008;55.612;37.698;2023-05-20T05:54:19;100642.31;;;22.40
75428;BMP280;64008;55.612;37.698;2023-05-20T05:56:45;100646.91;;;22.40
75428;BMP280;64008;55.612;37.698;2023-05-20T05:59:11;100656.75;;;22.49
75428;BMP280;64008;55.612;37.698;2023-05-20T06:01:37;100640.22;;;22.56
75428;BMP280;64008;55.612;37.698;2023-05-20T06:04:02;100651.75;;;22.62
75428;BMP280;64008;55.612;37.698;2023-05-20T06:06:28;100649.25;;;22.46
75428;BMP280;64008;55.612;37.698;2023-05-20T06:08:54;100649.38;;;22.36
75428;BMP280;64008;55.612;37.698;2023-05-20T06:11:20;100654.53;;;22.33
75428;BMP280;64008;55.612;37.698;2023-05-20T06:13:45;100662.16;;;22.25
75428;BMP280;64008;55.612;37.698;2023-05-20T06:16:11;100644.78;;;22.37
75428;BMP280;64008;55.612;37.698;2023-05-20T06:18:36;100656.00;;;22.44
75428;BMP280;64008;55.612;37.698;2023-05-20T06:21:03;100649.31;;;22.41
75428;BMP280;64008;55.612;37.698;2023-05-20T06:23:29;100653.25;;;22.49
75428;BMP280;64008;55.612;37.698;2023-05-20T06:25:58;100651.59;;;22.53
75428;BMP280;64008;55.612;37.698;2023-05-20T06:28:25;100655.97;;;22.49
75428;BMP280;64008;55.612;37.698;2023-05-20T06:30:50;100653.31;;;22.44
75428;BMP280;64008;55.612;37.698;2023-05-20T06:33:18;100652.22;;;22.45
75428;BMP280;64008;55.612;37.698;2023-05-20T06:35:44;100657.03;;;22.48
75428;BMP280;64008;55.612;37.698;2023-05-20T06:38:10;100648.72;;;22.44
75428;BMP280;64008;55.612;37.698;2023-05-20T06:40:35;100651.22;;;22.41
75428;BMP280;64008;55.612;37.698;2023-05-20T06:43:01;100650.16;;;22.37
75428;BMP280;64008;55.612;37.698;2023-05-20T06:45:26;100641.88;;;22.33
75428;BMP280;64008;55.612;37.698;2023-05-20T06:47:52;100647.94;;;22.44
75428;BMP280;64008;55.612;37.698;2023-05-20T06:50:18;100636.13;;;22.40
75428;BMP280;64008;55.612;37.698;2023-05-20T06:52:44;100650.38;;;22.40
75428;BMP280;64008;55.612;37.698;2023-05-20T06:55:10;100640.72;;;22.39
75428;BMP280;64008;55.612;37.698;2023-05-20T06:57:35;100652.81;;;22.42
75428;BMP280;64008;55.612;37.698;2023-05-20T07:00:02;100645.75;;;22.46
75428;BMP280;64008;55.612;37.698;2023-05-20T07:02:28;100630.03;;;22.53
75428;BMP280;64008;55.612;37.698;2023-05-20T07:04:53;100635.28;;;22.63
75428;BMP280;64008;55.612;37.698;2023-05-20T07:07:19;100647.63;;;22.69
75428;BMP280;64008;55.612;37.698;2023-05-20T07:09:44;100634.16;;;22.69
75428;BMP280;64008;55.612;37.698;2023-05-20T07:12:10;100642.78;;;22.66
75428;BMP280;64008;55.612;37.698;2023-05-20T07:14:35;100641.38;;;22.50
75428;BMP280;64008;55.612;37.698;2023-05-20T07:17:01;100636.88;;;22.45
75428;BMP280;64008;55.612;37.698;2023-05-20T07:19:26;100641.19;;;22.65
75428;BMP280;64008;55.612;37.698;2023-05-20T07:21:52;100642.66;;;22.77
75428;BMP280;64008;55.612;37.698;2023-05-20T07:24:17;100628.09;;;22.78
75428;BMP280;64008;55.612;37.698;2023-05-20T07:26:43;100642.06;;;22.80
75428;BMP280;64008;55.612;37.698;2023-05-20T07:29:09;100649.88;;;22.81
75428;BMP280;64008;55.612;37.698;2023-05-20T07:31:34;100654.88;;;22.69
75428;BMP280;64008;55.612;37.698;2023-05-20T07:34:00;100633.41;;;22.64
75428;BMP280;64008;55.612;37.698;2023-05-20T07:36:26;100646.00;;;22.68
75428;BMP280;64008;55.612;37.698;2023-05-20T07:38:52;100647.16;;;22.62
75428;BMP280;64008;55.612;37.698;2023-05-20T07:41:18;100642.53;;;22.63
75428;BMP280;64008;55.612;37.698;2023-05-20T07:43:44;100627.28;;;22.58
75428;BMP280;64008;55.612;37.698;2023-05-20T07:46:09;100636.38;;;22.62
75428;BMP280;64008;55.612;37.698;2023-05-20T07:48:35;100630.44;;;22.84
75428;BMP280;64008;55.612;37.698;2023-05-20T07:51:00;100625.63;;;22.81
75428;BMP280;64008;55.612;37.698;2023-05-20T07:53:26;100635.81;;;23.03
75428;BMP280;64008;55.612;37.698;2023-05-20T07:55:51;100624.47;;;23.01
75428;BMP280;64008;55.612;37.698;2023-05-20T07:58:17;100624.22;;;23.03
75428;BMP280;64008;55.612;37.698;2023-05-20T08:00:43;100624.41;;;23.06
75428;BMP280;64008;55.612;37.698;2023-05-20T08:03:09;100625.38;;;23.15
75428;BMP280;64008;55.612;37.698;2023-05-20T08:05:36;100618.78;;;23.22
75428;BMP280;64008;55.612;37.698;2023-05-20T08:08:01;100615.81;;;23.23
75428;BMP280;64008;55.612;37.698;2023-05-20T08:10:27;100617.03;;;23.31
75428;BMP280;64008;55.612;37.698;2023-05-20T08:12:52;100619.44;;;23.32
75428;BMP280;64008;55.612;37.698;2023-05-20T08:15:18;100618.91;;;23.30
75428;BMP280;64008;55.612;37.698;2023-05-20T08:17:43;100615.41;;;23.30
75428;BMP280;64008;55.612;37.698;2023-05-20T08:20:09;100614.34;;;23.31
75428;BMP280;64008;55.612;37.698;2023-05-20T08:22:37;100615.56;;;23.38
75428;BMP280;64008;55.612;37.698;2023-05-20T08:25:03;100619.53;;;23.41
75428;BMP280;64008;55.612;37.698;2023-05-20T08:27:29;100616.25;;;23.44
75428;BMP280;64008;55.612;37.698;2023-05-20T08:29:54;100615.97;;;23.46
75428;BMP280;64008;55.612;37.698;2023-05-20T08:32:20;100613.94;;;23.51
75428;BMP280;64008;55.612;37.698;2023-05-20T08:34:46;100613.66;;;23.53
75428;BMP280;64008;55.612;37.698;2023-05-20T08:37:13;100620.44;;;23.50
75428;BMP280;64008;55.612;37.698;2023-05-20T08:39:39;100624.53;;;23.48
75428;BMP280;64008;55.612;37.698;2023-05-20T08:42:05;100632.91;;;23.46
75428;BMP280;64008;55.612;37.698;2023-05-20T08:44:32;100632.53;;;23.39
75428;BMP280;64008;55.612;37.698;2023-05-20T08:46:58;100631.28;;;23.31
75428;BMP280;64008;55.612;37.698;2023-05-20T08:49:25;100637.88;;;23.25
75428;BMP280;64008;55.612;37.698;2023-05-20T08:51:51;100636.88;;;23.21
75428;BMP280;64008;55.612;37.698;2023-05-20T08:54:17;100637.84;;;23.11
75428;BMP280;64008;55.612;37.698;2023-05-20T08:56:45;100626.25;;;23.11
75428;BMP280;64008;55.612;37.698;2023-05-20T08:59:11;100625.06;;;23.17
75428;BMP280;64008;55.612;37.698;2023-05-20T09:01:40;100647.66;;;23.21
75428;BMP280;64008;55.612;37.698;2023-05-20T09:04:07;100628.19;;;23.24
75428;BMP280;64008;55.612;37.698;2023-05-20T09:06:46;100644.69;;;23.23
75428;BMP280;64008;55.612;37.698;2023-05-20T09:09:12;100621.09;;;23.28
75428;BMP280;64008;55.612;37.698;2023-05-20T09:11:39;100633.31;;;23.26
75428;BMP280;64008;55.612;37.698;2023-05-20T09:14:05;100644.28;;;23.29
75428;BMP280;64008;55.612;37.698;2023-05-20T09:16:31;100638.63;;;23.31
75428;BMP280;64008;55.612;37.698;2023-05-20T09:18:56;100639.91;;;23.33
75428;BMP280;64008;55.612;37.698;2023-05-20T09:21:28;100653.66;;;23.32
75428;BMP280;64008;55.612;37.698;2023-05-20T09:23:55;100632.91;;;23.32
75428;BMP280;64008;55.612;37.698;2023-05-20T09:26:26;100644.50;;;23.33
75428;BMP280;64008;55.612;37.698;2023-05-20T09:28:55;100641.31;;;23.31
75428;BMP280;64008;55.612;37.698;2023-05-20T09:31:22;100639.91;;;23.33
75428;BMP280;64008;55.612;37.698;2023-05-20T09:33:50;100633.41;;;23.34
75428;BMP280;64008;55.612;37.698;2023-05-20T09:36:18;100635.81;;;23.36
75428;BMP280;64008;55.612;37.698;2023-05-20T09:38:45;100656.50;;;23.40
75428;BMP280;64008;55.612;37.698;2023-05-20T09:41:12;100653.53;;;23.42
75428;BMP280;64008;55.612;37.698;2023-05-20T09:43:39;100647.53;;;23.45
75428;BMP280;64008;55.612;37.698;2023-05-20T09:46:06;100661.03;;;23.45
75428;BMP280;64008;55.612;37.698;2023-05-20T09:48:34;100664.22;;;23.47
75428;BMP280;64008;55.612;37.698;2023-05-20T09:51:01;100657.19;;;23.46
75428;BMP280;64008;55.612;37.698;2023-05-20T09:53:28;100639.94;;;23.47
75428;BMP280;64008;55.612;37.698;2023-05-20T09:55:54;100653.41;;;23.47
75428;BMP280;64008;55.612;37.698;2023-05-20T09:58:21;100660.50;;;23.43
75428;BMP280;64008;55.612;37.698;2023-05-20T10:00:47;100644.84;;;23.45
75428;BMP280;64008;55.612;37.698;2023-05-20T10:03:12;100649.94;;;23.47
75428;BMP280;64008;55.612;37.698;2023-05-20T10:05:41;100642.94;;;23.46
75428;BMP280;64008;55.612;37.698;2023-05-20T10:11:20;100668.59;;;23.43
75428;BMP280;64008;55.612;37.698;2023-05-20T10:14:31;100652.63;;;23.47
75428;BMP280;64008;55.612;37.698;2023-05-20T10:17:12;100645.91;;;23.44
75428;BMP280;64008;55.612;37.698;2023-05-20T10:19:40;100657.75;;;23.48
75428;BMP280;64008;55.612;37.698;2023-05-20T10:22:07;100661.72;;;23.51
75428;BMP280;64008;55.612;37.698;2023-05-20T10:24:38;100666.13;;;23.47
75428;BMP280;64008;55.612;37.698;2023-05-20T10:27:09;100664.22;;;23.47
75428;BMP280;64008;55.612;37.698;2023-05-20T10:32:07;100670.28;;;23.39
75428;BMP280;64008;55.612;37.698;2023-05-20T10:34:44;100677.44;;;23.30
75428;BMP280;64008;55.612;37.698;2023-05-20T10:37:23;100657.03;;;23.24
75428;BMP280;64008;55.612;37.698;2023-05-20T10:39:49;100665.59;;;23.31
75428;BMP280;64008;55.612;37.698;2023-05-20T10:42:15;100670.22;;;23.25
75428;BMP280;64008;55.612;37.698;2023-05-20T10:44:45;100668.78;;;23.14
75428;BMP280;64008;55.612;37.698;2023-05-20T10:47:11;100672.94;;;23.06
75428;BMP280;64008;55.612;37.698;2023-05-20T10:49:44;100668.75;;;23.00
75428;BMP280;64008;55.612;37.698;2023-05-20T10:52:11;100667.13;;;22.99
75428;BMP280;64008;55.612;37.698;2023-05-20T10:55:06;100667.13;;;22.99
75428;BMP280;64008;55.612;37.698;2023-05-20T10:57:33;100679.00;;;22.98
75428;BMP280;64008;55.612;37.698;2023-05-20T10:59:58;100672.72;;;23.03
75428;BMP280;64008;55.612;37.698;2023-05-20T11:02:25;100680.53;;;23.04
75428;BMP280;64008;55.612;37.698;2023-05-20T11:04:54;100655.31;;;23.14
75428;BMP280;64008;55.612;37.698;2023-05-20T11:07:27;100670.63;;;23.18
75428;BMP280;64008;55.612;37.698;2023-05-20T11:09:54;100674.34;;;23.23
75428;BMP280;64008;55.612;37.698;2023-05-20T11:12:21;100672.13;;;23.25
75428;BMP280;64008;55.612;37.698;2023-05-20T11:14:48;100664.63;;;23.22
75428;BMP280;64008;55.612;37.698;2023-05-20T11:17:15;100675.34;;;23.27
75428;BMP280;64008;55.612;37.698;2023-05-20T11:19:41;100677.03;;;23.23
75428;BMP280;64008;55.612;37.698;2023-05-20T11:22:07;100673.50;;;23.22
75428;BMP280;64008;55.612;37.698;2023-05-20T11:24:32;100666.88;;;23.33
75428;BMP280;64008;55.612;37.698;2023-05-20T11:26:59;100649.88;;;23.33
75428;BMP280;64008;55.612;37.698;2023-05-20T11:29:25;100665.28;;;23.32
75428;BMP280;64008;55.612;37.698;2023-05-20T11:31:51;100674.44;;;23.31
75428;BMP280;64008;55.612;37.698;2023-05-20T11:34:20;100676.25;;;23.36
75428;BMP280;64008;55.612;37.698;2023-05-20T11:36:47;100685.44;;;23.35
75428;BMP280;64008;55.612;37.698;2023-05-20T11:39:15;100669.34;;;23.30
75428;BMP280;64008;55.612;37.698;2023-05-20T11:41:41;100667.69;;;23.34
75428;BMP280;64008;55.612;37.698;2023-05-20T11:44:10;100682.19;;;23.38
75428;BMP280;64008;55.612;37.698;2023-05-20T11:46:42;100667.91;;;23.37
75428;BMP280;64008;55.612;37.698;2023-05-20T11:49:09;100665.41;;;23.41
75428;BMP280;64008;55.612;37.698;2023-05-20T11:51:35;100668.59;;;23.43
75428;BMP280;64008;55.612;37.698;2023-05-20T11:54:03;100661.50;;;23.47
75428;BMP280;64008;55.612;37.698;2023-05-20T11:56:33;100670.94;;;23.50
75428;BMP280;64008;55.612;37.698;2023-05-20T11:58:59;100663.63;;;23.50
75428;BMP280;64008;55.612;37.698;2023-05-20T12:01:26;100684.31;;;23.55
75428;BMP280;64008;55.612;37.698;2023-05-20T12:03:54;100662.03;;;23.49
75428;BMP280;64008;55.612;37.698;2023-05-20T12:06:20;100656.31;;;23.51
75428;BMP280;64008;55.612;37.698;2023-05-20T12:08:45;100657.13;;;23.51
75428;BMP280;64008;55.612;37.698;2023-05-20T12:11:12;100665.16;;;23.56
75428;BMP280;64008;55.612;37.698;2023-05-20T12:13:38;100682.16;;;23.57
75428;BMP280;64008;55.612;37.698;2023-05-20T12:16:04;100667.31;;;23.54
75428;BMP280;64008;55.612;37.698;2023-05-20T12:18:31;100664.13;;;23.52
75428;BMP280;64008;55.612;37.698;2023-05-20T12:20:57;100660.56;;;23.57
75428;BMP280;64008;55.612;37.698;2023-05-20T12:23:23;100673.25;;;23.56
75428;BMP280;64008;55.612;37.698;2023-05-20T12:25:49;100659.75;;;23.56
75428;BMP280;64008;55.612;37.698;2023-05-20T12:28:15;100658.94;;;23.56
75428;BMP280;64008;55.612;37.698;2023-05-20T12:30:42;100662.16;;;23.58
75428;BMP280;64008;55.612;37.698;2023-05-20T12:33:08;100665.56;;;23.63
75428;BMP280;64008;55.612;37.698;2023-05-20T12:35:42;100670.34;;;23.67
75428;BMP280;64008;55.612;37.698;2023-05-20T12:38:08;100669.75;;;23.70
75428;BMP280;64008;55.612;37.698;2023-05-20T12:40:34;100657.16;;;23.65
75428;BMP280;64008;55.612;37.698;2023-05-20T12:43:03;100661.38;;;23.71
75428;BMP280;64008;55.612;37.698;2023-05-20T12:45:29;100656.59;;;23.68
75428;BMP280;64008;55.612;37.698;2023-05-20T12:47:55;100657.66;;;23.67
75428;BMP280;64008;55.612;37.698;2023-05-20T12:50:23;100658.47;;;23.68
75428;BMP280;64008;55.612;37.698;2023-05-20T12:52:48;100651.66;;;23.70
75428;BMP280;64008;55.612;37.698;2023-05-20T12:55:14;100664.56;;;23.73
75428;BMP280;64008;55.612;37.698;2023-05-20T12:57:41;100653.75;;;23.73
75428;BMP280;64008;55.612;37.698;2023-05-20T13:00:08;100651.38;;;23.72
75428;BMP280;64008;55.612;37.698;2023-05-20T13:02:37;100653.75;;;23.73
75428;BMP280;64008;55.612;37.698;2023-05-20T13:05:04;100643.16;;;23.77
75428;BMP280;64008;55.612;37.698;2023-05-20T13:07:30;100641.81;;;23.79
75428;BMP280;64008;55.612;37.698;2023-05-20T13:09:57;100657.19;;;23.79
75428;BMP280;64008;55.612;37.698;2023-05-20T13:12:23;100649.09;;;23.79
75428;BMP280;64008;55.612;37.698;2023-05-20T13:14:48;100647.41;;;23.83
75428;BMP280;64008;55.612;37.698;2023-05-20T13:17:14;100647.19;;;23.79
75428;BMP280;64008;55.612;37.698;2023-05-20T13:19:39;100636.59;;;23.83
75428;BMP280;64008;55.612;37.698;2023-05-20T13:22:05;100656.66;;;23.77
75428;BMP280;64008;55.612;37.698;2023-05-20T13:24:32;100659.69;;;23.75
75428;BMP280;64008;55.612;37.698;2023-05-20T13:26:58;100651.25;;;23.77
75428;BMP280;64008;55.612;37.698;2023-05-20T13:29:27;100658.69;;;23.71
75428;BMP280;64008;55.612;37.698;2023-05-20T13:31:53;100659.16;;;23.73
75428;BMP280;64008;55.612;37.698;2023-05-20T13:34:18;100659.56;;;23.67
75428;BMP280;64008;55.612;37.698;2023-05-20T13:36:44;100668.59;;;23.76
75428;BMP280;64008;55.612;37.698;2023-05-20T13:39:11;100670.91;;;23.82
75428;BMP280;64008;55.612;37.698;2023-05-20T13:41:37;100667.78;;;23.89
75428;BMP280;64008;55.612;37.698;2023-05-20T13:44:02;100659.41;;;23.91
75428;BMP280;64008;55.612;37.698;2023-05-20T13:46:28;100670.69;;;23.93